Raymore, Missouri
Current Conditions -  °F | °C
As of 6:03 AM on Saturday 25 Oct 2014 (Local Time) from KLXT Reporting Station
Moderate Fog Moderate Fog  
Wind Chill: 58°   Ceiling: 400
Heat Index: 58°   Visibility: 0.25mi
Dew Point: 57°   Wind: 3mph
Humidity: 97%   Direction: 240°WSW
Pressure: 30.04"   Gusts: NA
Location:  38.8°N, 94.46°W
Report Text: KLXT 251103Z AUTO 24003KT 1/4SM FG VV004 14/14 A3004 RMK AO2 T01440139
Loading
Personal Weather Stations






























Interactive Weather Map
Tropical Storm Tracking
New forecast layout! Learn more

10-Day Weather Forecast

Advertisements
Track Severe Weather on mobile